Ana Sayfa
METAR-TAF:

METAR-TAF

Havaalanları :

Edson, Alberta, Kanada

Enlem: 53-35N, Boylam: 116-28W, yükseklik: 921 m

Güncel hava durumu gözlemi

Rapor saat 04:00 UTC de 1 saat ve 12 dakika önce yapıldı.
Rüzgar kuzeydoğudan 8 kt
Sıcaklık 1°C
Nem 59%
Basınç 1000 hPa
Görüş mesafesi: 14.5 km
7500 ft yükseklikte az bulutlu
10000 ft yükseklikte parçalı çok bulutlu
12000 ft yükseklikte parçalı çok bulutlu
15000 ft yükseklikte çok bulutlu

METAR: CYET 290400Z AUTO 04008KT 9SM FEW075 BKN100 BKN120 OVC150 01/M06 A2952 RMK SLP036

Saat: 22:12 (05:12 UTC)


TAF: eksik

4.000'den fazla havaalanı için hava durumu gözlemleri ve tahminleri (METAR ve TAF raporları).

Kullanılabilir istasyonlar harita üzerinde sarı ve kırmızı noktalarla gösterilir.

İstasyonun adını görmek için fareyi noktanın üzerinde gezdirin.

Sonrasında hava gözlem ve tahminlerini görmek için tıklayın.

Haritayı değiştirmek için: yaklaştırmak için siyah artı işaretli yeşil düğmeye ve uzaklaştırmak için de eksi işaretli düğmeye hızla tıklayın; bitişik haritalar için yeşil okları kullanın.


METAR-TAF: